createdAt,value
2022-11-03T00:00:56.907Z,99.59
2022-11-03T00:03:58.681Z,99.12
2022-11-03T00:07:00.609Z,99.05
2022-11-03T00:10:02.472Z,99.81
2022-11-03T00:13:04.526Z,99.37
2022-11-03T00:16:07.476Z,100.00
2022-11-03T00:19:09.969Z,99.78
2022-11-03T00:22:11.992Z,99.65
2022-11-03T00:25:14.921Z,100.00
2022-11-03T00:28:16.718Z,100.00
2022-11-03T00:31:19.577Z,100.00
2022-11-03T00:34:21.481Z,100.00
2022-11-03T00:37:23.295Z,100.00
2022-11-03T00:40:25.020Z,100.00
2022-11-03T00:43:28.133Z,100.00
2022-11-03T00:46:30.675Z,100.00
2022-11-03T00:49:32.428Z,100.00
2022-11-03T00:52:34.151Z,100.00
2022-11-03T00:55:35.890Z,100.00
2022-11-03T00:58:37.775Z,100.00
2022-11-03T01:01:46.985Z,99.41
2022-11-03T01:05:07.845Z,99.05
2022-11-03T01:08:09.577Z,97.84
2022-11-03T01:11:32.262Z,98.29
2022-11-03T01:14:39.080Z,99.40
2022-11-03T01:17:41.546Z,98.06
2022-11-03T01:20:43.390Z,98.77
2022-11-03T01:23:45.121Z,98.47
2022-11-03T01:26:46.959Z,96.84
2022-11-03T01:29:48.814Z,96.17
2022-11-03T01:32:50.569Z,97.30
2022-11-03T01:35:55.412Z,97.36
2022-11-03T01:38:57.470Z,97.72
2022-11-03T01:41:59.401Z,98.42
2022-11-03T01:45:01.300Z,98.06
2022-11-03T01:48:02.991Z,96.64
2022-11-03T01:51:06.055Z,95.60
2022-11-03T01:54:11.784Z,95.05
2022-11-03T01:57:16.230Z,94.91
2022-11-03T02:00:18.681Z,97.02
2022-11-03T02:03:22.653Z,98.76
2022-11-03T02:06:27.097Z,99.07
2022-11-03T02:09:29.456Z,99.73
2022-11-03T02:12:32.143Z,99.17
2022-11-03T02:15:34.459Z,98.61
2022-11-03T02:18:36.317Z,100.00
2022-11-03T02:21:45.647Z,100.00
2022-11-03T02:25:00.242Z,100.00
2022-11-03T02:28:03.091Z,100.00
2022-11-03T02:31:36.122Z,100.00
2022-11-03T02:34:47.255Z,100.00
2022-11-03T02:37:53.133Z,99.30
2022-11-03T02:40:58.914Z,98.10
2022-11-03T02:44:01.357Z,98.29
2022-11-03T02:47:07.304Z,98.83
2022-11-03T02:50:10.737Z,99.90
2022-11-03T02:53:14.018Z,100.00
2022-11-03T02:56:20.646Z,100.00
2022-11-03T02:59:28.192Z,100.00
2022-11-03T03:02:38.493Z,100.00
2022-11-03T03:05:41.675Z,100.00
2022-11-03T03:08:49.040Z,99.66
2022-11-03T03:11:52.079Z,97.84
2022-11-03T03:14:58.364Z,98.02
2022-11-03T03:18:23.680Z,98.49
2022-11-03T03:21:33.730Z,99.84
2022-11-03T03:25:00.180Z,95.49
2022-11-03T03:28:18.837Z,96.30
2022-11-03T03:31:21.884Z,99.47
2022-11-03T03:34:34.712Z,98.78
2022-11-03T03:37:40.908Z,99.05
2022-11-03T03:40:44.355Z,99.30
2022-11-03T03:43:46.592Z,98.20
2022-11-03T03:46:57.352Z,97.61
2022-11-03T03:49:59.292Z,100.00
2022-11-03T03:53:02.510Z,98.02
2022-11-03T03:56:05.961Z,98.01
2022-11-03T03:59:08.573Z,98.41
2022-11-03T04:02:11.705Z,99.24
2022-11-03T04:05:13.743Z,100.00
2022-11-03T04:08:17.151Z,99.90
2022-11-03T04:11:37.449Z,100.00
2022-11-03T04:14:57.839Z,99.91
2022-11-03T04:18:18.186Z,98.82
2022-11-03T04:21:38.744Z,100.00
2022-11-03T04:24:40.623Z,100.00
2022-11-03T04:27:42.365Z,100.00
2022-11-03T04:30:44.137Z,100.00
2022-11-03T04:33:46.442Z,100.00
2022-11-03T04:36:48.223Z,99.05
2022-11-03T04:39:50.213Z,99.17
2022-11-03T04:42:52.146Z,98.77
2022-11-03T04:45:53.862Z,98.67
2022-11-03T04:48:59.625Z,98.89
2022-11-03T04:52:01.589Z,98.24
2022-11-03T04:55:06.522Z,97.88
2022-11-03T04:58:28.059Z,96.69
2022-11-03T05:01:30.164Z,96.10
2022-11-03T05:04:32.172Z,96.09
2022-11-03T05:07:35.405Z,96.00
2022-11-03T05:10:37.575Z,96.46
2022-11-03T05:13:39.343Z,95.62
2022-11-03T05:16:41.904Z,96.19
2022-11-03T05:19:44.212Z,95.92
2022-11-03T05:22:50.878Z,96.25
2022-11-03T05:25:54.764Z,95.71
2022-11-03T05:29:24.606Z,95.76
2022-11-03T05:32:29.461Z,95.83
2022-11-03T05:35:31.946Z,95.68
2022-11-03T05:38:35.287Z,94.92
2022-11-03T05:41:38.497Z,95.02
2022-11-03T05:44:40.977Z,94.43
2022-11-03T05:47:42.910Z,95.01
2022-11-03T05:50:44.817Z,94.22
2022-11-03T05:53:50.870Z,93.94
2022-11-03T05:56:53.583Z,92.28
2022-11-03T05:59:56.001Z,93.42
2022-11-03T06:03:00.354Z,94.23
2022-11-03T06:06:02.643Z,94.63
2022-11-03T06:09:14.067Z,95.94
2022-11-03T06:12:19.571Z,95.32
2022-11-03T06:15:33.472Z,96.34
2022-11-03T06:18:37.428Z,94.68
2022-11-03T06:21:44.433Z,94.91
2022-11-03T06:24:47.523Z,95.27
2022-11-03T06:27:52.192Z,94.57
2022-11-03T06:30:54.621Z,95.76
2022-11-03T06:33:58.111Z,95.32
2022-11-03T06:37:12.662Z,95.30
2022-11-03T06:40:15.665Z,94.76
2022-11-03T06:43:28.258Z,94.05
2022-11-03T06:46:31.353Z,94.34
2022-11-03T06:49:35.168Z,94.15
2022-11-03T06:52:44.036Z,94.13
2022-11-03T06:55:47.310Z,94.81
2022-11-03T06:58:51.531Z,95.15
2022-11-03T07:01:56.185Z,94.19
2022-11-03T07:04:58.930Z,93.61
2022-11-03T07:08:04.294Z,95.73
2022-11-03T07:11:15.293Z,94.62
2022-11-03T07:14:22.554Z,93.98
2022-11-03T07:17:26.786Z,96.27
2022-11-03T07:20:29.891Z,95.65
2022-11-03T07:23:31.852Z,95.14
2022-11-03T07:26:34.812Z,94.59
2022-11-03T07:29:37.444Z,94.31
2022-11-03T07:32:40.314Z,95.59
2022-11-03T07:36:13.211Z,95.75
2022-11-03T07:39:06.664Z,95.69
2022-11-03T07:42:19.489Z,96.15
2022-11-03T07:45:42.920Z,96.46
2022-11-03T07:48:47.119Z,96.13
2022-11-03T07:51:51.227Z,95.76
2022-11-03T07:54:55.309Z,95.80
2022-11-03T07:57:58.214Z,92.84
2022-11-03T08:01:01.598Z,91.42
2022-11-03T08:04:06.621Z,90.37
2022-11-03T08:07:10.275Z,90.75
2022-11-03T08:10:14.044Z,90.01
2022-11-03T08:13:17.672Z,90.41
2022-11-03T08:16:20.645Z,88.87
2022-11-03T08:19:23.085Z,88.19
2022-11-03T08:22:26.356Z,89.15
2022-11-03T08:25:29.077Z,90.46
2022-11-03T08:28:32.751Z,91.73
2022-11-03T08:31:35.443Z,91.87
2022-11-03T08:34:39.886Z,90.24
2022-11-03T08:37:42.404Z,89.05
2022-11-03T08:40:44.585Z,89.72
2022-11-03T08:43:47.439Z,89.36
2022-11-03T08:46:50.387Z,87.15
2022-11-03T08:49:52.535Z,88.89
2022-11-03T08:52:54.960Z,87.81
2022-11-03T08:55:58.173Z,87.21
2022-11-03T08:59:00.343Z,85.60
2022-11-03T09:02:02.836Z,85.21
2022-11-03T09:05:06.149Z,85.39
2022-11-03T09:11:32.058Z,85.47
2022-11-03T09:14:34.288Z,86.37
2022-11-03T09:17:36.675Z,87.56
2022-11-03T09:20:39.831Z,86.58
2022-11-03T09:23:45.021Z,85.98
2022-11-03T09:26:46.895Z,85.44
2022-11-03T09:30:12.289Z,85.22
2022-11-03T09:33:18.895Z,85.51
2022-11-03T09:36:21.029Z,84.17
2022-11-03T09:39:23.127Z,83.13
2022-11-03T09:42:25.700Z,82.56
2022-11-03T09:45:27.904Z,83.21
2022-11-03T09:48:30.438Z,81.81
2022-11-03T09:51:32.817Z,82.14
2022-11-03T09:54:35.292Z,79.04
2022-11-03T09:57:37.345Z,80.23
2022-11-03T10:00:39.844Z,77.51
2022-11-03T10:03:42.065Z,72.15
2022-11-03T10:06:44.314Z,72.54
2022-11-03T10:09:48.420Z,73.12
2022-11-03T10:12:53.416Z,73.32
2022-11-03T10:15:56.473Z,73.12
2022-11-03T10:18:58.486Z,74.78
2022-11-03T10:22:00.443Z,71.93
2022-11-03T10:25:30.548Z,70.87
2022-11-03T10:28:32.588Z,71.54
2022-11-03T10:31:39.825Z,72.43
2022-11-03T10:34:42.143Z,71.86
2022-11-03T10:37:45.069Z,73.32
2022-11-03T10:40:48.524Z,71.48
2022-11-03T10:44:05.653Z,70.68
2022-11-03T10:47:42.318Z,71.33
2022-11-03T10:50:45.019Z,71.63
2022-11-03T10:53:46.853Z,71.37
2022-11-03T10:56:51.057Z,67.08
2022-11-03T10:59:54.514Z,70.03
2022-11-03T11:03:00.105Z,70.33
2022-11-03T11:06:02.330Z,68.75
2022-11-03T11:09:05.451Z,69.00
2022-11-03T11:12:17.945Z,67.43
2022-11-03T11:15:35.300Z,68.95
2022-11-03T11:19:00.193Z,69.43
2022-11-03T11:22:13.364Z,65.41
2022-11-03T11:25:16.166Z,67.48
2022-11-03T11:28:19.668Z,67.89
2022-11-03T11:31:27.449Z,66.60
2022-11-03T11:34:35.473Z,67.04
2022-11-03T11:37:38.531Z,65.62
2022-11-03T11:40:50.540Z,66.53
2022-11-03T11:43:54.709Z,66.27
2022-11-03T11:46:56.765Z,68.60
2022-11-03T11:50:09.141Z,67.21
2022-11-03T11:53:13.033Z,66.04
2022-11-03T11:56:16.724Z,67.68
2022-11-03T11:59:25.346Z,67.64
2022-11-03T12:02:30.623Z,68.19
2022-11-03T12:05:34.356Z,68.60
2022-11-03T12:08:36.525Z,69.16
2022-11-03T12:11:56.792Z,68.05
2022-11-03T12:15:00.812Z,69.73
2022-11-03T12:18:39.099Z,68.85
2022-11-03T12:21:48.266Z,68.54
2022-11-03T12:24:58.782Z,68.57
2022-11-03T12:28:01.816Z,69.18
2022-11-03T12:31:04.974Z,69.30
2022-11-03T12:34:07.377Z,69.16
2022-11-03T12:37:10.166Z,67.43
2022-11-03T12:40:14.737Z,67.11
2022-11-03T12:43:17.539Z,67.42
2022-11-03T12:46:21.721Z,68.05
2022-11-03T12:49:23.695Z,69.82
2022-11-03T12:52:25.627Z,68.98
2022-11-03T12:58:30.674Z,69.19
2022-11-03T13:01:33.629Z,66.64
2022-11-03T13:04:35.810Z,67.17
2022-11-03T13:07:38.352Z,68.99
2022-11-03T13:10:41.197Z,69.62
2022-11-03T13:13:44.254Z,68.19
2022-11-03T13:16:46.828Z,67.10
2022-11-03T13:19:54.469Z,68.75
2022-11-03T13:22:57.870Z,67.68
2022-11-03T13:26:00.209Z,65.78
2022-11-03T13:29:02.480Z,68.00
2022-11-03T13:32:05.560Z,68.21
2022-11-03T13:35:12.487Z,68.79
2022-11-03T13:38:16.406Z,67.46
2022-11-03T13:41:18.972Z,68.00
2022-11-03T13:44:21.745Z,66.65
2022-11-03T13:47:34.385Z,66.87
2022-11-03T13:50:47.513Z,67.46
2022-11-03T14:00:35.277Z,68.15
2022-11-03T14:07:00.166Z,66.90
2022-11-03T14:10:04.013Z,67.67
2022-11-03T14:13:08.302Z,65.03
2022-11-03T14:16:11.434Z,64.78
2022-11-03T14:19:13.450Z,66.44
2022-11-03T14:22:15.554Z,66.21
2022-11-03T14:25:20.468Z,66.53
2022-11-03T14:28:26.228Z,66.59
2022-11-03T14:31:29.208Z,66.90
2022-11-03T14:34:31.480Z,67.73
2022-11-03T14:37:33.885Z,66.60
2022-11-03T14:40:54.842Z,69.13
2022-11-03T14:43:57.338Z,69.12
2022-11-03T14:47:01.787Z,67.73
2022-11-03T14:50:05.490Z,67.70
2022-11-03T14:53:08.337Z,68.55
2022-11-03T14:56:12.264Z,69.63
2022-11-03T14:59:14.528Z,69.88
2022-11-03T15:02:17.469Z,69.17
2022-11-03T15:05:45.868Z,69.17
2022-11-03T15:08:53.446Z,70.69
2022-11-03T15:11:58.377Z,70.81
2022-11-03T15:15:04.506Z,71.09
2022-11-03T15:18:08.000Z,71.28
2022-11-03T15:21:10.314Z,71.44
2022-11-03T15:27:39.044Z,72.54
2022-11-03T15:30:41.477Z,71.89
2022-11-03T15:33:43.436Z,72.63
2022-11-03T15:36:45.628Z,72.33
2022-11-03T15:39:47.851Z,72.93
2022-11-03T15:42:49.960Z,73.11
2022-11-03T15:45:52.133Z,72.79
2022-11-03T15:48:56.757Z,74.03
2022-11-03T15:51:58.714Z,73.66
2022-11-03T15:55:00.609Z,73.70
2022-11-03T15:58:02.797Z,73.80
2022-11-03T16:01:05.682Z,74.42
2022-11-03T16:04:07.793Z,74.10
2022-11-03T16:07:09.688Z,74.73
2022-11-03T16:10:17.958Z,74.79
2022-11-03T16:13:19.898Z,75.09
2022-11-03T16:16:22.254Z,74.56
2022-11-03T16:19:24.261Z,75.74
2022-11-03T16:22:27.100Z,74.10
2022-11-03T16:25:29.211Z,74.51
2022-11-03T16:28:31.606Z,74.57
2022-11-03T16:31:33.458Z,74.73
2022-11-03T16:34:35.227Z,75.60
2022-11-03T16:37:37.742Z,75.13
2022-11-03T16:40:39.793Z,74.47
2022-11-03T16:43:41.800Z,74.89
2022-11-03T16:46:43.647Z,75.48
2022-11-03T16:49:45.974Z,75.20
2022-11-03T16:52:49.362Z,75.45
2022-11-03T16:55:51.350Z,75.70
2022-11-03T16:58:53.240Z,76.31
2022-11-03T17:01:57.450Z,76.04
2022-11-03T17:04:59.367Z,75.97
2022-11-03T17:08:02.397Z,76.91
2022-11-03T17:11:04.545Z,76.59
2022-11-03T17:14:09.296Z,76.87
2022-11-03T17:17:11.581Z,77.49
2022-11-03T17:20:13.660Z,77.51
2022-11-03T17:23:16.048Z,78.39
2022-11-03T17:26:21.750Z,78.17
2022-11-03T17:29:31.707Z,78.38
2022-11-03T17:32:39.665Z,78.91
2022-11-03T17:35:43.257Z,79.47
2022-11-03T17:38:45.489Z,79.42
2022-11-03T17:41:47.834Z,79.64
2022-11-03T17:44:51.268Z,79.64
2022-11-03T17:47:54.305Z,79.26
2022-11-03T17:50:56.589Z,80.13
2022-11-03T17:53:59.390Z,79.95
2022-11-03T17:57:02.962Z,80.21
2022-11-03T18:00:06.071Z,80.03
2022-11-03T18:03:15.276Z,80.21
2022-11-03T18:06:19.512Z,80.03
2022-11-03T18:09:22.107Z,79.93
2022-11-03T18:12:45.818Z,80.64
2022-11-03T18:15:52.988Z,79.89
2022-11-03T18:18:55.407Z,80.10
2022-11-03T18:21:57.912Z,80.14
2022-11-03T18:25:00.289Z,80.66
2022-11-03T18:28:02.837Z,80.79
2022-11-03T18:31:06.700Z,80.08
2022-11-03T18:34:31.624Z,79.63
2022-11-03T18:37:35.938Z,80.49
2022-11-03T18:40:41.068Z,80.68
2022-11-03T18:43:43.347Z,80.26
2022-11-03T18:46:48.555Z,80.23
2022-11-03T18:49:54.667Z,80.34
2022-11-03T18:52:59.834Z,80.43
2022-11-03T18:56:02.556Z,80.89
2022-11-03T18:59:05.233Z,80.49
2022-11-03T19:02:15.666Z,81.00
2022-11-03T19:05:19.027Z,80.98
2022-11-03T19:08:41.184Z,80.72
2022-11-03T19:11:43.987Z,81.22
2022-11-03T19:14:49.054Z,81.71
2022-11-03T19:17:58.337Z,81.54
2022-11-03T19:21:02.217Z,81.01
2022-11-03T19:24:05.139Z,81.28
2022-11-03T19:27:17.068Z,81.87
2022-11-03T19:30:21.524Z,81.45
2022-11-03T19:33:33.958Z,81.99
2022-11-03T19:36:43.719Z,81.94
2022-11-03T19:39:49.014Z,81.67
2022-11-03T19:42:52.527Z,81.92
2022-11-03T19:45:59.614Z,82.43
2022-11-03T19:49:01.770Z,81.98
2022-11-03T19:52:06.434Z,81.67
2022-11-03T19:55:13.141Z,81.90
2022-11-03T19:58:19.647Z,82.55
2022-11-03T20:01:22.353Z,82.59
2022-11-03T20:04:25.032Z,82.32
2022-11-03T20:07:31.448Z,82.28
2022-11-03T20:10:36.053Z,81.95
2022-11-03T20:13:40.991Z,82.00
2022-11-03T20:16:43.358Z,82.21
2022-11-03T20:19:45.715Z,82.64
2022-11-03T20:22:51.924Z,82.70
2022-11-03T20:25:54.779Z,82.29
2022-11-03T20:28:57.198Z,82.85
2022-11-03T20:31:59.741Z,82.78
2022-11-03T20:35:02.198Z,82.44
2022-11-03T20:38:04.160Z,82.58
2022-11-03T20:41:13.219Z,82.76
2022-11-03T20:44:16.785Z,82.51
2022-11-03T20:47:19.274Z,83.17
2022-11-03T20:50:21.375Z,82.56
2022-11-03T20:53:25.611Z,82.65
2022-11-03T20:56:28.547Z,82.58
2022-11-03T20:59:33.247Z,82.47
2022-11-03T21:02:38.080Z,82.86
2022-11-03T21:05:40.052Z,83.51
2022-11-03T21:08:43.613Z,82.96
2022-11-03T21:11:46.499Z,82.87
2022-11-03T21:15:07.561Z,82.50
2022-11-03T21:18:33.918Z,82.13
2022-11-03T21:21:36.551Z,82.32
2022-11-03T21:24:38.592Z,82.56
2022-11-03T21:27:42.150Z,82.21
2022-11-03T21:30:44.417Z,82.45
2022-11-03T21:33:46.721Z,82.39
2022-11-03T21:36:48.895Z,82.27
2022-11-03T21:39:50.974Z,82.37
2022-11-03T21:43:11.661Z,81.77
2022-11-03T21:46:13.571Z,81.37
2022-11-03T21:49:34.168Z,81.42
2022-11-03T21:52:36.954Z,81.54
2022-11-03T21:55:39.209Z,80.46
2022-11-03T21:58:41.658Z,81.02
2022-11-03T22:01:43.887Z,81.51
2022-11-03T22:04:46.357Z,81.71
2022-11-03T22:07:48.478Z,81.52
2022-11-03T22:10:50.816Z,81.00
2022-11-03T22:13:58.343Z,80.58
2022-11-03T22:20:20.405Z,80.27
2022-11-03T22:24:00.387Z,80.67
2022-11-03T22:27:02.372Z,80.51
2022-11-03T22:30:23.520Z,80.60
2022-11-03T22:33:26.940Z,80.78
2022-11-03T22:36:28.830Z,80.48
2022-11-03T22:39:49.306Z,80.05
2022-11-03T22:43:10.154Z,80.19
2022-11-03T22:46:14.150Z,80.34
2022-11-03T22:49:16.031Z,80.46
2022-11-03T22:52:18.018Z,80.72
2022-11-03T22:55:19.777Z,80.24
2022-11-03T22:58:24.312Z,80.31
2022-11-03T23:01:28.618Z,80.19
2022-11-03T23:04:30.574Z,79.98
2022-11-03T23:07:40.810Z,80.04
2022-11-03T23:10:43.483Z,79.94
2022-11-03T23:13:57.885Z,80.01
2022-11-03T23:16:59.567Z,80.52
2022-11-03T23:20:20.028Z,80.47
2022-11-03T23:23:40.396Z,80.12
2022-11-03T23:26:42.964Z,80.32
2022-11-03T23:29:44.864Z,80.37
2022-11-03T23:32:46.880Z,80.17
2022-11-03T23:35:48.924Z,79.65
2022-11-03T23:38:50.800Z,79.59
2022-11-03T23:41:52.668Z,79.55
2022-11-03T23:45:13.115Z,79.86
2022-11-03T23:48:33.610Z,79.86
2022-11-03T23:51:36.620Z,79.10
2022-11-03T23:54:38.570Z,79.61
2022-11-03T23:57:58.889Z,79.27
